sensor_id;sensor_type;location;lat;lon;timestamp;pressure;altitude;pressure_sealevel;temperature;humidity
55010;BME280;40903;51.638;7.528;2023-04-20T00:01:57;101527.91;;;8.00;47.85
55010;BME280;40903;51.638;7.528;2023-04-20T00:04:26;101518.09;;;7.99;48.66
55010;BME280;40903;51.638;7.528;2023-04-20T00:06:52;101527.84;;;7.95;48.34
55010;BME280;40903;51.638;7.528;2023-04-20T00:09:18;101511.78;;;7.94;47.61
55010;BME280;40903;51.638;7.528;2023-04-20T00:11:43;101500.69;;;7.95;48.18
55010;BME280;40903;51.638;7.528;2023-04-20T00:14:08;101499.56;;;7.91;48.52
55010;BME280;40903;51.638;7.528;2023-04-20T00:16:33;101495.44;;;7.89;47.49
55010;BME280;40903;51.638;7.528;2023-04-20T00:18:59;101493.50;;;7.84;46.80
55010;BME280;40903;51.638;7.528;2023-04-20T00:21:25;101488.81;;;7.80;46.33
55010;BME280;40903;51.638;7.528;2023-04-20T00:23:51;101485.72;;;7.71;48.04
55010;BME280;40903;51.638;7.528;2023-04-20T00:26:17;101482.91;;;7.62;47.89
55010;BME280;40903;51.638;7.528;2023-04-20T00:28:42;101474.38;;;7.53;48.14
55010;BME280;40903;51.638;7.528;2023-04-20T00:31:08;101468.56;;;7.45;48.64
55010;BME280;40903;51.638;7.528;2023-04-20T00:33:33;101463.91;;;7.40;49.26
55010;BME280;40903;51.638;7.528;2023-04-20T00:35:58;101455.09;;;7.33;50.17
55010;BME280;40903;51.638;7.528;2023-04-20T00:38:23;101453.97;;;7.29;50.25
55010;BME280;40903;51.638;7.528;2023-04-20T00:40:49;101447.81;;;7.17;49.96
55010;BME280;40903;51.638;7.528;2023-04-20T00:43:17;101446.13;;;7.11;50.12
55010;BME280;40903;51.638;7.528;2023-04-20T00:45:44;101446.06;;;7.06;51.21
55010;BME280;40903;51.638;7.528;2023-04-20T00:48:09;101439.25;;;7.04;52.01
55010;BME280;40903;51.638;7.528;2023-04-20T00:50:35;101444.09;;;7.02;50.33
55010;BME280;40903;51.638;7.528;2023-04-20T00:53:01;101447.88;;;7.01;50.05
55010;BME280;40903;51.638;7.528;2023-04-20T00:55:27;101423.16;;;6.97;51.38
55010;BME280;40903;51.638;7.528;2023-04-20T00:57:53;101424.78;;;6.98;51.12
55010;BME280;40903;51.638;7.528;2023-04-20T01:00:18;101426.66;;;6.98;52.22
55010;BME280;40903;51.638;7.528;2023-04-20T01:02:44;101421.84;;;7.00;51.84
55010;BME280;40903;51.638;7.528;2023-04-20T01:05:09;101413.53;;;7.06;51.27
55010;BME280;40903;51.638;7.528;2023-04-20T01:07:35;101408.09;;;7.06;52.43
55010;BME280;40903;51.638;7.528;2023-04-20T01:10:01;101394.53;;;7.06;53.69
55010;BME280;40903;51.638;7.528;2023-04-20T01:12:26;101409.13;;;7.05;51.70
55010;BME280;40903;51.638;7.528;2023-04-20T01:14:51;101398.63;;;7.09;52.21
55010;BME280;40903;51.638;7.528;2023-04-20T01:17:16;101386.78;;;7.15;52.28
55010;BME280;40903;51.638;7.528;2023-04-20T01:19:42;101383.31;;;7.19;52.81
55010;BME280;40903;51.638;7.528;2023-04-20T01:22:13;101371.19;;;7.27;52.31
55010;BME280;40903;51.638;7.528;2023-04-20T01:24:38;101370.13;;;7.28;51.39
55010;BME280;40903;51.638;7.528;2023-04-20T01:27:03;101365.84;;;7.32;51.83
55010;BME280;40903;51.638;7.528;2023-04-20T01:29:28;101361.00;;;7.34;51.66
55010;BME280;40903;51.638;7.528;2023-04-20T01:31:54;101355.88;;;7.37;53.17
55010;BME280;40903;51.638;7.528;2023-04-20T01:34:19;101358.84;;;7.36;53.04
55010;BME280;40903;51.638;7.528;2023-04-20T01:36:44;101357.25;;;7.40;52.63
55010;BME280;40903;51.638;7.528;2023-04-20T01:39:10;101356.50;;;7.44;53.26
55010;BME280;40903;51.638;7.528;2023-04-20T01:41:36;101342.41;;;7.47;53.96
55010;BME280;40903;51.638;7.528;2023-04-20T01:44:01;101342.97;;;7.49;53.10
55010;BME280;40903;51.638;7.528;2023-04-20T01:46:26;101325.88;;;7.49;53.19
55010;BME280;40903;51.638;7.528;2023-04-20T01:48:51;101333.19;;;7.48;54.84
55010;BME280;40903;51.638;7.528;2023-04-20T01:51:16;101322.63;;;7.47;55.23
55010;BME280;40903;51.638;7.528;2023-04-20T01:53:42;101318.88;;;7.53;55.16
55010;BME280;40903;51.638;7.528;2023-04-20T01:56:07;101316.16;;;7.53;56.63
55010;BME280;40903;51.638;7.528;2023-04-20T01:58:32;101306.94;;;7.54;57.64
55010;BME280;40903;51.638;7.528;2023-04-20T02:00:59;101314.00;;;7.55;57.12
55010;BME280;40903;51.638;7.528;2023-04-20T02:03:24;101309.72;;;7.59;58.66
55010;BME280;40903;51.638;7.528;2023-04-20T02:05:50;101297.78;;;7.60;59.41
55010;BME280;40903;51.638;7.528;2023-04-20T02:08:15;101299.66;;;7.59;60.51
55010;BME280;40903;51.638;7.528;2023-04-20T02:10:40;101291.53;;;7.59;59.95
55010;BME280;40903;51.638;7.528;2023-04-20T02:13:05;101287.19;;;7.58;61.27
55010;BME280;40903;51.638;7.528;2023-04-20T02:15:31;101292.84;;;7.57;61.58
55010;BME280;40903;51.638;7.528;2023-04-20T02:17:56;101292.84;;;7.57;62.40
55010;BME280;40903;51.638;7.528;2023-04-20T02:20:22;101305.34;;;7.58;63.59
55010;BME280;40903;51.638;7.528;2023-04-20T02:22:48;101299.63;;;7.54;63.15
55010;BME280;40903;51.638;7.528;2023-04-20T02:25:14;101300.75;;;7.58;63.61
55010;BME280;40903;51.638;7.528;2023-04-20T02:27:39;101288.03;;;7.64;63.72
55010;BME280;40903;51.638;7.528;2023-04-20T02:30:05;101283.69;;;7.63;65.53
55010;BME280;40903;51.638;7.528;2023-04-20T02:32:30;101293.16;;;7.60;65.03
55010;BME280;40903;51.638;7.528;2023-04-20T02:34:55;101283.38;;;7.59;65.17
55010;BME280;40903;51.638;7.528;2023-04-20T02:37:21;101282.63;;;7.64;65.58
55010;BME280;40903;51.638;7.528;2023-04-20T02:39:46;101283.19;;;7.66;66.94
55010;BME280;40903;51.638;7.528;2023-04-20T02:42:11;101285.34;;;7.64;67.25
55010;BME280;40903;51.638;7.528;2023-04-20T02:44:36;101294.28;;;7.64;67.92
55010;BME280;40903;51.638;7.528;2023-04-20T02:47:01;101297.00;;;7.64;68.86
55010;BME280;40903;51.638;7.528;2023-04-20T02:49:27;101286.34;;;7.58;69.49
55010;BME280;40903;51.638;7.528;2023-04-20T02:51:52;101291.28;;;7.61;70.11
55010;BME280;40903;51.638;7.528;2023-04-20T02:54:17;101288.56;;;7.61;70.81
55010;BME280;40903;51.638;7.528;2023-04-20T02:56:42;101288.81;;;7.59;71.27
55010;BME280;40903;51.638;7.528;2023-04-20T02:59:08;101283.41;;;7.64;72.17
55010;BME280;40903;51.638;7.528;2023-04-20T03:01:33;101280.44;;;7.61;72.32
55010;BME280;40903;51.638;7.528;2023-04-20T03:03:58;101287.72;;;7.60;72.59
55010;BME280;40903;51.638;7.528;2023-04-20T03:06:23;101279.81;;;7.54;73.93
55010;BME280;40903;51.638;7.528;2023-04-20T03:08:50;101281.16;;;7.51;73.95
55010;BME280;40903;51.638;7.528;2023-04-20T03:11:15;101276.53;;;7.52;74.59
55010;BME280;40903;51.638;7.528;2023-04-20T03:13:41;101276.47;;;7.47;75.14
55010;BME280;40903;51.638;7.528;2023-04-20T03:16:06;101271.31;;;7.45;75.44
55010;BME280;40903;51.638;7.528;2023-04-20T03:18:31;101267.28;;;7.48;75.18
55010;BME280;40903;51.638;7.528;2023-04-20T03:20:56;101273.22;;;7.45;76.14
55010;BME280;40903;51.638;7.528;2023-04-20T03:23:22;101270.97;;;7.42;75.94
55010;BME280;40903;51.638;7.528;2023-04-20T03:25:47;101271.25;;;7.40;76.48
55010;BME280;40903;51.638;7.528;2023-04-20T03:28:13;101262.84;;;7.42;76.77
55010;BME280;40903;51.638;7.528;2023-04-20T03:30:39;101265.56;;;7.42;76.55
55010;BME280;40903;51.638;7.528;2023-04-20T03:33:04;101259.00;;;7.38;76.90
55010;BME280;40903;51.638;7.528;2023-04-20T03:35:29;101265.75;;;7.35;77.17
55010;BME280;40903;51.638;7.528;2023-04-20T03:37:54;101250.28;;;7.31;77.44
55010;BME280;40903;51.638;7.528;2023-04-20T03:40:20;101259.50;;;7.30;77.54
55010;BME280;40903;51.638;7.528;2023-04-20T03:42:45;101253.47;;;7.28;77.65
55010;BME280;40903;51.638;7.528;2023-04-20T03:45:10;101250.22;;;7.26;77.98
55010;BME280;40903;51.638;7.528;2023-04-20T03:47:36;101252.69;;;7.27;78.16
55010;BME280;40903;51.638;7.528;2023-04-20T03:50:01;101251.34;;;7.30;77.78
55010;BME280;40903;51.638;7.528;2023-04-20T03:52:26;101256.78;;;7.30;78.33
55010;BME280;40903;51.638;7.528;2023-04-20T03:54:52;101248.28;;;7.21;78.42
55010;BME280;40903;51.638;7.528;2023-04-20T03:57:17;101243.41;;;7.23;78.74
55010;BME280;40903;51.638;7.528;2023-04-20T03:59:42;101246.69;;;7.25;78.72
55010;BME280;40903;51.638;7.528;2023-04-20T04:02:07;101251.34;;;7.30;78.55
55010;BME280;40903;51.638;7.528;2023-04-20T04:04:34;101242.63;;;7.28;79.27
55010;BME280;40903;51.638;7.528;2023-04-20T04:07:00;101245.94;;;7.30;78.48
55010;BME280;40903;51.638;7.528;2023-04-20T04:09:25;101246.16;;;7.28;78.03
55010;BME280;40903;51.638;7.528;2023-04-20T04:11:50;101247.56;;;7.31;78.41
55010;BME280;40903;51.638;7.528;2023-04-20T04:14:16;101241.00;;;7.27;78.62
55010;BME280;40903;51.638;7.528;2023-04-20T04:16:41;101242.06;;;7.26;78.78
55010;BME280;40903;51.638;7.528;2023-04-20T04:19:06;101245.63;;;7.26;78.58
55010;BME280;40903;51.638;7.528;2023-04-20T04:21:31;101243.47;;;7.28;78.73
55010;BME280;40903;51.638;7.528;2023-04-20T04:23:57;101239.63;;;7.24;79.17
55010;BME280;40903;51.638;7.528;2023-04-20T04:26:23;101244.50;;;7.22;78.90
55010;BME280;40903;51.638;7.528;2023-04-20T04:28:49;101249.09;;;7.22;78.51
55010;BME280;40903;51.638;7.528;2023-04-20T04:31:15;101239.88;;;7.23;79.17
55010;BME280;40903;51.638;7.528;2023-04-20T04:33:42;101243.41;;;7.23;79.31
55010;BME280;40903;51.638;7.528;2023-04-20T04:36:07;101244.75;;;7.21;79.13
55010;BME280;40903;51.638;7.528;2023-04-20T04:38:32;101244.97;;;7.19;79.07
55010;BME280;40903;51.638;7.528;2023-04-20T04:40:58;101246.88;;;7.19;79.31
55010;BME280;40903;51.638;7.528;2023-04-20T04:43:23;101240.16;;;7.21;78.72
55010;BME280;40903;51.638;7.528;2023-04-20T04:45:49;101238.00;;;7.23;80.25
55010;BME280;40903;51.638;7.528;2023-04-20T04:48:14;101243.97;;;7.25;79.66
55010;BME280;40903;51.638;7.528;2023-04-20T04:50:40;101241.59;;;7.29;79.51
55010;BME280;40903;51.638;7.528;2023-04-20T04:53:05;101243.97;;;7.25;79.37
55010;BME280;40903;51.638;7.528;2023-04-20T04:55:30;101251.28;;;7.25;79.48
55010;BME280;40903;51.638;7.528;2023-04-20T04:57:56;101251.28;;;7.25;80.10
55010;BME280;40903;51.638;7.528;2023-04-20T05:00:21;101252.88;;;7.21;79.80
55010;BME280;40903;51.638;7.528;2023-04-20T05:02:46;101257.22;;;7.22;80.18
55010;BME280;40903;51.638;7.528;2023-04-20T05:05:12;101247.50;;;7.26;79.91
55010;BME280;40903;51.638;7.528;2023-04-20T05:07:37;101251.03;;;7.26;80.35
55010;BME280;40903;51.638;7.528;2023-04-20T05:10:04;101253.44;;;7.23;80.49
55010;BME280;40903;51.638;7.528;2023-04-20T05:12:30;101254.31;;;7.28;80.17
55010;BME280;40903;51.638;7.528;2023-04-20T05:14:55;101255.06;;;7.24;80.99
55010;BME280;40903;51.638;7.528;2023-04-20T05:17:20;101260.50;;;7.24;81.62
55010;BME280;40903;51.638;7.528;2023-04-20T05:19:45;101253.72;;;7.21;83.10
55010;BME280;40903;51.638;7.528;2023-04-20T05:22:11;101259.38;;;7.20;83.28
55010;BME280;40903;51.638;7.528;2023-04-20T05:24:36;101265.59;;;7.20;84.66
55010;BME280;40903;51.638;7.528;2023-04-20T05:27:01;101263.41;;;7.17;87.69
55010;BME280;40903;51.638;7.528;2023-04-20T05:29:28;101260.13;;;7.15;89.12
55010;BME280;40903;51.638;7.528;2023-04-20T05:31:53;101267.94;;;7.12;92.48
55010;BME280;40903;51.638;7.528;2023-04-20T05:34:18;101272.19;;;7.03;93.75
55010;BME280;40903;51.638;7.528;2023-04-20T05:36:43;101267.22;;;6.95;95.21
55010;BME280;40903;51.638;7.528;2023-04-20T05:39:08;101271.28;;;6.92;96.40
55010;BME280;40903;51.638;7.528;2023-04-20T05:41:34;101271.38;;;6.81;99.02
55010;BME280;40903;51.638;7.528;2023-04-20T05:43:59;101274.88;;;6.76;100.00
55010;BME280;40903;51.638;7.528;2023-04-20T05:46:25;101273.47;;;6.74;100.00
55010;BME280;40903;51.638;7.528;2023-04-20T05:48:50;101262.28;;;6.70;100.00
55010;BME280;40903;51.638;7.528;2023-04-20T05:51:15;101271.81;;;6.73;100.00
55010;BME280;40903;51.638;7.528;2023-04-20T05:53:41;101277.81;;;6.75;100.00
55010;BME280;40903;51.638;7.528;2023-04-20T05:56:06;101272.72;;;6.78;100.00
55010;BME280;40903;51.638;7.528;2023-04-20T05:58:32;101278.63;;;6.75;100.00
55010;BME280;40903;51.638;7.528;2023-04-20T06:00:57;101274.28;;;6.74;100.00
55010;BME280;40903;51.638;7.528;2023-04-20T06:03:23;101287.88;;;6.58;100.00
55010;BME280;40903;51.638;7.528;2023-04-20T06:05:48;101281.34;;;6.54;100.00
55010;BME280;40903;51.638;7.528;2023-04-20T06:08:13;101281.34;;;6.54;100.00
55010;BME280;40903;51.638;7.528;2023-04-20T06:10:38;101281.06;;;6.55;100.00
55010;BME280;40903;51.638;7.528;2023-04-20T06:13:04;101278.63;;;6.54;100.00
55010;BME280;40903;51.638;7.528;2023-04-20T06:15:29;101276.47;;;6.56;100.00
55010;BME280;40903;51.638;7.528;2023-04-20T06:17:55;101280.44;;;6.48;100.00
55010;BME280;40903;51.638;7.528;2023-04-20T06:20:20;101271.41;;;6.43;100.00
55010;BME280;40903;51.638;7.528;2023-04-20T06:22:45;101275.03;;;6.48;100.00
55010;BME280;40903;51.638;7.528;2023-04-20T06:25:11;101270.00;;;6.57;100.00
55010;BME280;40903;51.638;7.528;2023-04-20T06:27:37;101279.50;;;6.59;100.00
55010;BME280;40903;51.638;7.528;2023-04-20T06:30:02;101275.97;;;6.59;100.00
55010;BME280;40903;51.638;7.528;2023-04-20T06:32:28;101271.19;;;6.66;100.00
55010;BME280;40903;51.638;7.528;2023-04-20T06:34:53;101264.44;;;6.68;100.00
55010;BME280;40903;51.638;7.528;2023-04-20T06:37:18;101261.03;;;6.78;100.00
55010;BME280;40903;51.638;7.528;2023-04-20T06:39:44;101258.47;;;6.88;100.00
55010;BME280;40903;51.638;7.528;2023-04-20T06:42:09;101261.59;;;7.01;100.00
55010;BME280;40903;51.638;7.528;2023-04-20T06:44:34;101265.25;;;7.12;100.00
55010;BME280;40903;51.638;7.528;2023-04-20T06:46:59;101262.59;;;7.17;100.00
55010;BME280;40903;51.638;7.528;2023-04-20T06:49:25;101260.88;;;7.11;100.00
55010;BME280;40903;51.638;7.528;2023-04-20T06:51:50;101252.56;;;7.17;100.00
55010;BME280;40903;51.638;7.528;2023-04-20T06:54:16;101261.00;;;7.21;100.00
55010;BME280;40903;51.638;7.528;2023-04-20T06:56:41;101252.34;;;7.24;100.00
55010;BME280;40903;51.638;7.528;2023-04-20T06:59:06;101254.00;;;7.25;100.00
55010;BME280;40903;51.638;7.528;2023-04-20T07:01:31;101255.72;;;7.31;100.00
55010;BME280;40903;51.638;7.528;2023-04-20T07:03:56;101254.16;;;7.40;100.00
55010;BME280;40903;51.638;7.528;2023-04-20T07:06:22;101254.47;;;7.43;99.12
55010;BME280;40903;51.638;7.528;2023-04-20T07:08:47;101261.56;;;7.49;98.16
55010;BME280;40903;51.638;7.528;2023-04-20T07:11:12;101254.81;;;7.52;98.48
55010;BME280;40903;51.638;7.528;2023-04-20T07:13:37;101257.06;;;7.60;98.17
55010;BME280;40903;51.638;7.528;2023-04-20T07:16:02;101251.44;;;7.66;99.59
55010;BME280;40903;51.638;7.528;2023-04-20T07:18:28;101251.19;;;7.72;99.09
55010;BME280;40903;51.638;7.528;2023-04-20T07:20:53;101248.25;;;7.74;96.44
55010;BME280;40903;51.638;7.528;2023-04-20T07:23:18;101251.25;;;7.77;97.30
55010;BME280;40903;51.638;7.528;2023-04-20T07:25:44;101248.75;;;7.71;95.90
55010;BME280;40903;51.638;7.528;2023-04-20T07:28:09;101243.03;;;7.68;95.46
55010;BME280;40903;51.638;7.528;2023-04-20T07:30:35;101244.97;;;7.72;96.01
55010;BME280;40903;51.638;7.528;2023-04-20T07:33:00;101239.22;;;7.68;95.03
55010;BME280;40903;51.638;7.528;2023-04-20T07:35:25;101245.69;;;7.63;95.23
55010;BME280;40903;51.638;7.528;2023-04-20T07:37:50;101238.72;;;7.71;95.81
55010;BME280;40903;51.638;7.528;2023-04-20T07:40:15;101235.50;;;7.74;96.47
55010;BME280;40903;51.638;7.528;2023-04-20T07:42:41;101241.69;;;7.70;94.58
55010;BME280;40903;51.638;7.528;2023-04-20T07:45:06;101222.41;;;7.71;94.42
55010;BME280;40903;51.638;7.528;2023-04-20T07:47:32;101231.56;;;7.61;93.73
55010;BME280;40903;51.638;7.528;2023-04-20T07:49:57;101236.50;;;7.68;94.46
55010;BME280;40903;51.638;7.528;2023-04-20T07:52:23;101233.56;;;7.70;95.28
55010;BME280;40903;51.638;7.528;2023-04-20T07:54:48;101237.63;;;7.72;93.91
55010;BME280;40903;51.638;7.528;2023-04-20T07:57:13;101237.16;;;7.80;95.02
55010;BME280;40903;51.638;7.528;2023-04-20T07:59:39;101239.09;;;7.85;93.25
55010;BME280;40903;51.638;7.528;2023-04-20T08:02:04;101229.13;;;7.95;94.09
55010;BME280;40903;51.638;7.528;2023-04-20T08:04:30;101226.97;;;7.97;93.92
55010;BME280;40903;51.638;7.528;2023-04-20T08:06:55;101231.59;;;7.97;92.88
55010;BME280;40903;51.638;7.528;2023-04-20T08:09:20;101224.34;;;8.07;93.97
55010;BME280;40903;51.638;7.528;2023-04-20T08:11:46;101236.84;;;8.08;92.09
55010;BME280;40903;51.638;7.528;2023-04-20T08:14:11;101223.09;;;8.25;93.05
55010;BME280;40903;51.638;7.528;2023-04-20T08:16:37;101221.59;;;8.44;90.64
55010;BME280;40903;51.638;7.528;2023-04-20T08:19:02;101223.16;;;8.35;88.71
55010;BME280;40903;51.638;7.528;2023-04-20T08:21:34;101225.59;;;8.31;88.96
55010;BME280;40903;51.638;7.528;2023-04-20T08:23:59;101222.84;;;8.21;89.17
55010;BME280;40903;51.638;7.528;2023-04-20T08:26:25;101224.91;;;8.14;89.50
55010;BME280;40903;51.638;7.528;2023-04-20T08:28:51;101225.13;;;8.08;91.11
55010;BME280;40903;51.638;7.528;2023-04-20T08:31:16;101228.47;;;8.15;92.22
55010;BME280;40903;51.638;7.528;2023-04-20T08:33:42;101221.66;;;8.12;93.61
55010;BME280;40903;51.638;7.528;2023-04-20T08:36:07;101227.59;;;8.04;96.86
55010;BME280;40903;51.638;7.528;2023-04-20T08:38:32;101234.31;;;7.97;99.76
55010;BME280;40903;51.638;7.528;2023-04-20T08:40:57;101233.69;;;7.85;100.00
55010;BME280;40903;51.638;7.528;2023-04-20T08:43:23;101230.53;;;7.67;100.00
55010;BME280;40903;51.638;7.528;2023-04-20T08:45:48;101236.81;;;7.72;100.00
55010;BME280;40903;51.638;7.528;2023-04-20T08:48:15;101237.13;;;7.75;100.00
55010;BME280;40903;51.638;7.528;2023-04-20T08:50:41;101237.38;;;7.74;100.00
55010;BME280;40903;51.638;7.528;2023-04-20T08:53:06;101244.75;;;7.78;100.00
55010;BME280;40903;51.638;7.528;2023-04-20T08:55:33;101248.44;;;7.68;100.00
55010;BME280;40903;51.638;7.528;2023-04-20T08:57:58;101254.16;;;7.40;100.00
55010;BME280;40903;51.638;7.528;2023-04-20T09:00:24;101245.06;;;7.24;100.00
55010;BME280;40903;51.638;7.528;2023-04-20T09:02:53;101232.81;;;7.22;100.00
55010;BME280;40903;51.638;7.528;2023-04-20T09:05:25;101239.25;;;7.42;100.00
55010;BME280;40903;51.638;7.528;2023-04-20T09:07:52;101241.88;;;7.59;100.00
55010;BME280;40903;51.638;7.528;2023-04-20T09:10:18;101239.22;;;7.68;100.00
55010;BME280;40903;51.638;7.528;2023-04-20T09:12:43;101244.34;;;7.65;100.00
55010;BME280;40903;51.638;7.528;2023-04-20T09:15:09;101238.69;;;7.67;100.00
55010;BME280;40903;51.638;7.528;2023-04-20T09:17:35;101241.69;;;7.70;100.00
55010;BME280;40903;51.638;7.528;2023-04-20T09:20:01;101240.69;;;7.81;100.00
55010;BME280;40903;51.638;7.528;2023-04-20T09:22:29;101246.34;;;7.74;100.00
55010;BME280;40903;51.638;7.528;2023-04-20T09:24:55;101248.03;;;7.80;100.00
55010;BME280;40903;51.638;7.528;2023-04-20T09:27:20;101238.56;;;7.83;100.00
55010;BME280;40903;51.638;7.528;2023-04-20T09:29:56;101239.75;;;7.97;100.00
55010;BME280;40903;51.638;7.528;2023-04-20T09:32:22;101238.44;;;8.04;100.00
55010;BME280;40903;51.638;7.528;2023-04-20T09:34:48;101243.22;;;8.24;100.00
55010;BME280;40903;51.638;7.528;2023-04-20T09:37:14;101238.84;;;8.23;100.00
55010;BME280;40903;51.638;7.528;2023-04-20T09:39:39;101237.06;;;8.38;100.00
55010;BME280;40903;51.638;7.528;2023-04-20T09:42:06;101236.13;;;8.69;100.00
55010;BME280;40903;51.638;7.528;2023-04-20T09:44:36;101228.34;;;8.93;100.00
55010;BME280;40903;51.638;7.528;2023-04-20T09:47:02;101216.16;;;9.15;100.00
55010;BME280;40903;51.638;7.528;2023-04-20T09:49:27;101229.25;;;9.38;100.00
55010;BME280;40903;51.638;7.528;2023-04-20T09:51:55;101226.03;;;9.66;100.00
55010;BME280;40903;51.638;7.528;2023-04-20T09:54:20;101221.13;;;9.73;100.00
55010;BME280;40903;51.638;7.528;2023-04-20T09:56:46;101219.22;;;9.64;98.17
55010;BME280;40903;51.638;7.528;2023-04-20T09:59:13;101222.78;;;9.74;100.00
55010;BME280;40903;51.638;7.528;2023-04-20T10:01:38;101214.59;;;9.79;98.57
55010;BME280;40903;51.638;7.528;2023-04-20T10:04:07;101216.75;;;9.82;95.83
55010;BME280;40903;51.638;7.528;2023-04-20T10:06:38;101213.25;;;10.06;98.03
55010;BME280;40903;51.638;7.528;2023-04-20T10:09:04;101224.13;;;10.21;94.64
55010;BME280;40903;51.638;7.528;2023-04-20T10:11:33;101221.41;;;10.01;86.29
55010;BME280;40903;51.638;7.528;2023-04-20T10:14:00;101222.22;;;9.92;87.49
55010;BME280;40903;51.638;7.528;2023-04-20T10:16:26;101221.69;;;9.75;85.40
55010;BME280;40903;51.638;7.528;2023-04-20T10:19:01;101216.50;;;9.73;87.40
55010;BME280;40903;51.638;7.528;2023-04-20T10:21:28;101227.66;;;9.67;87.12
55010;BME280;40903;51.638;7.528;2023-04-20T10:23:53;101221.41;;;9.81;85.33
55010;BME280;40903;51.638;7.528;2023-04-20T10:26:19;101225.50;;;10.19;85.35
55010;BME280;40903;51.638;7.528;2023-04-20T10:28:44;101213.94;;;10.62;88.10
55010;BME280;40903;51.638;7.528;2023-04-20T10:31:10;101218.78;;;10.70;82.23
55010;BME280;40903;51.638;7.528;2023-04-20T10:33:53;101214.47;;;10.59;82.78
55010;BME280;40903;51.638;7.528;2023-04-20T10:36:28;101217.69;;;10.76;84.26
55010;BME280;40903;51.638;7.528;2023-04-20T10:38:55;101225.00;;;10.80;81.11
55010;BME280;40903;51.638;7.528;2023-04-20T10:41:20;101213.59;;;10.73;80.48
55010;BME280;40903;51.638;7.528;2023-04-20T10:43:45;101209.13;;;10.97;81.83
55010;BME280;40903;51.638;7.528;2023-04-20T10:46:14;101203.16;;;10.90;83.32
55010;BME280;40903;51.638;7.528;2023-04-20T10:51:33;101212.81;;;10.68;78.85
55010;BME280;40903;51.638;7.528;2023-04-20T10:54:01;101204.94;;;10.56;78.77
55010;BME280;40903;51.638;7.528;2023-04-20T10:56:35;101214.75;;;10.57;76.18
55010;BME280;40903;51.638;7.528;2023-04-20T10:59:33;101213.63;;;10.68;77.76
55010;BME280;40903;51.638;7.528;2023-04-20T11:01:51;101206.72;;;10.91;79.06
55010;BME280;40903;51.638;7.528;2023-04-20T11:04:27;101208.03;;;11.42;76.86
55010;BME280;40903;51.638;7.528;2023-04-20T11:06:53;101200.34;;;11.82;75.26
55010;BME280;40903;51.638;7.528;2023-04-20T11:09:20;101196.88;;;12.05;73.32
55010;BME280;40903;51.638;7.528;2023-04-20T11:11:56;101202.22;;;12.43;74.38
55010;BME280;40903;51.638;7.528;2023-04-20T11:14:22;101209.91;;;12.65;67.08
55010;BME280;40903;51.638;7.528;2023-04-20T11:16:50;101192.00;;;12.96;66.25
55010;BME280;40903;51.638;7.528;2023-04-20T11:19:21;101199.44;;;12.90;63.71
55010;BME280;40903;51.638;7.528;2023-04-20T11:21:46;101196.03;;;13.03;64.44
55010;BME280;40903;51.638;7.528;2023-04-20T11:24:18;101204.09;;;12.90;62.87
55010;BME280;40903;51.638;7.528;2023-04-20T11:26:47;101201.94;;;12.87;63.08
55010;BME280;40903;51.638;7.528;2023-04-20T11:29:26;101208.44;;;12.72;62.18
55010;BME280;40903;51.638;7.528;2023-04-20T11:31:52;101202.38;;;12.99;64.08
55010;BME280;40903;51.638;7.528;2023-04-20T11:34:17;101207.59;;;12.95;60.24
55010;BME280;40903;51.638;7.528;2023-04-20T11:36:42;101206.53;;;12.91;59.98
55010;BME280;40903;51.638;7.528;2023-04-20T11:39:08;101200.16;;;12.77;60.80
55010;BME280;40903;51.638;7.528;2023-04-20T11:41:34;101200.06;;;12.64;61.57
55010;BME280;40903;51.638;7.528;2023-04-20T11:44:01;101197.28;;;13.11;61.25
55010;BME280;40903;51.638;7.528;2023-04-20T11:46:26;101201.84;;;12.97;58.81
55010;BME280;40903;51.638;7.528;2023-04-20T11:48:51;101185.25;;;13.07;62.07
55010;BME280;40903;51.638;7.528;2023-04-20T11:51:16;101188.00;;;13.07;61.82
55010;BME280;40903;51.638;7.528;2023-04-20T11:53:42;101194.53;;;13.11;60.39
55010;BME280;40903;51.638;7.528;2023-04-20T11:56:07;101191.28;;;13.27;60.09
55010;BME280;40903;51.638;7.528;2023-04-20T11:58:33;101195.03;;;13.50;59.96
55010;BME280;40903;51.638;7.528;2023-04-20T12:00:58;101190.84;;;13.39;58.87
55010;BME280;40903;51.638;7.528;2023-04-20T12:03:24;101206.97;;;13.03;58.59
55010;BME280;40903;51.638;7.528;2023-04-20T12:05:49;101186.19;;;13.02;60.21
55010;BME280;40903;51.638;7.528;2023-04-20T12:08:15;101200.22;;;12.96;59.50
55010;BME280;40903;51.638;7.528;2023-04-20T12:10:41;101200.00;;;13.11;59.41
55010;BME280;40903;51.638;7.528;2023-04-20T12:13:06;101203.72;;;12.78;57.93
55010;BME280;40903;51.638;7.528;2023-04-20T12:15:31;101203.75;;;12.96;60.48
55010;BME280;40903;51.638;7.528;2023-04-20T12:17:56;101191.00;;;13.47;58.95
55010;BME280;40903;51.638;7.528;2023-04-20T12:20:22;101200.47;;;13.55;55.98
55010;BME280;40903;51.638;7.528;2023-04-20T12:22:47;101198.00;;;12.98;57.28
55010;BME280;40903;51.638;7.528;2023-04-20T12:25:12;101199.59;;;12.57;58.24
55010;BME280;40903;51.638;7.528;2023-04-20T12:27:38;101202.41;;;12.23;60.95
55010;BME280;40903;51.638;7.528;2023-04-20T12:30:03;101203.16;;;12.05;59.92
55010;BME280;40903;51.638;7.528;2023-04-20T12:32:28;101197.06;;;12.13;61.82
55010;BME280;40903;51.638;7.528;2023-04-20T12:34:54;101205.03;;;12.33;61.32
55010;BME280;40903;51.638;7.528;2023-04-20T12:37:19;101199.47;;;12.43;59.86
55010;BME280;40903;51.638;7.528;2023-04-20T12:39:45;101195.88;;;12.24;61.89
55010;BME280;40903;51.638;7.528;2023-04-20T12:42:10;101205.28;;;12.37;60.00
55010;BME280;40903;51.638;7.528;2023-04-20T12:44:35;101207.34;;;12.50;59.20
55010;BME280;40903;51.638;7.528;2023-04-20T12:47:01;101202.66;;;12.50;59.48
55010;BME280;40903;51.638;7.528;2023-04-20T12:49:26;101199.53;;;12.62;57.78
55010;BME280;40903;51.638;7.528;2023-04-20T12:51:51;101197.53;;;12.67;58.20